Terminal Aerodrome Forecast
Issued by NWS Cleveland, OH

Home | Current Version | Previous Version | Graphics & Text | Print | Product List | Glossary On
Versions: 1 2 3 4 5 6 7 8 9 10 11 12 13 14 15 16 17 18 19
000
FTUS41 KCLE 141133
TAFCAK
TAF
KCAK 141133Z 1412/1512 34010KT 5SM -SHSN FEW008 OVC015
      TEMPO 1412/1415 3SM -SHSN BKN008
     FM141500 34010KT P6SM SCT015 OVC025
     FM142100 31006KT P6SM SCT025 BKN035
     FM151100 21006KT P6SM BKN050=

USA.gov is the U.S. government's official web portal to all federal, state and local government web resources and services.